createdAt,value
2022-09-18T00:01:34.112Z,3.10
2022-09-18T00:04:05.101Z,3.20
2022-09-18T00:06:39.335Z,2.13
2022-09-18T00:09:10.265Z,4.05
2022-09-18T00:11:41.919Z,2.63
2022-09-18T00:14:12.663Z,4.78
2022-09-18T00:16:42.860Z,3.08
2022-09-18T00:19:13.379Z,3.42
2022-09-18T00:21:45.017Z,3.15
2022-09-18T00:24:15.212Z,2.97
2022-09-18T00:26:45.383Z,3.78
2022-09-18T00:29:15.541Z,3.90
2022-09-18T00:31:46.307Z,5.15
2022-09-18T00:34:17.384Z,4.40
2022-09-18T00:36:47.617Z,3.75
2022-09-18T00:39:18.194Z,3.35
2022-09-18T00:41:49.086Z,3.78
2022-09-18T00:44:25.616Z,3.92
2022-09-18T00:46:56.123Z,4.50
2022-09-18T00:49:27.108Z,3.20
2022-09-18T00:51:58.418Z,2.97
2022-09-18T00:54:34.221Z,3.67
2022-09-18T00:57:08.402Z,5.95
2022-09-18T00:59:38.990Z,4.25
2022-09-18T01:02:10.123Z,2.83
2022-09-18T01:04:40.865Z,3.45
2022-09-18T01:07:32.383Z,3.05
2022-09-18T01:10:37.915Z,4.90
2022-09-18T01:13:13.410Z,3.20
2022-09-18T01:15:46.729Z,6.45
2022-09-18T01:18:28.730Z,3.50
2022-09-18T01:21:04.756Z,4.53
2022-09-18T01:23:40.075Z,3.25
2022-09-18T01:26:10.138Z,3.63
2022-09-18T01:28:47.193Z,5.45
2022-09-18T01:31:21.529Z,5.80
2022-09-18T01:34:11.420Z,11.07
2022-09-18T01:36:41.754Z,11.48
2022-09-18T01:39:37.977Z,9.52
2022-09-18T01:42:08.208Z,15.20
2022-09-18T01:44:39.316Z,12.35
2022-09-18T01:47:11.306Z,16.33
2022-09-18T01:49:50.763Z,10.27
2022-09-18T01:52:28.183Z,12.30
2022-09-18T01:54:59.383Z,9.77
2022-09-18T01:57:35.539Z,6.45
2022-09-18T02:00:12.991Z,6.03
2022-09-18T02:02:53.230Z,5.70
2022-09-18T02:05:30.793Z,8.75
2022-09-18T02:08:02.680Z,5.85
2022-09-18T02:10:34.366Z,10.82
2022-09-18T02:13:05.974Z,5.40
2022-09-18T02:15:39.052Z,4.65
2022-09-18T02:18:19.634Z,5.63
2022-09-18T02:20:50.384Z,6.05
2022-09-18T02:23:20.724Z,6.18
2022-09-18T02:25:58.496Z,7.00
2022-09-18T02:28:31.839Z,6.50
2022-09-18T02:31:03.432Z,5.60
2022-09-18T02:33:35.444Z,3.83
2022-09-18T02:36:05.730Z,8.68
2022-09-18T02:38:56.577Z,6.30
2022-09-18T02:41:44.774Z,4.68
2022-09-18T02:44:18.962Z,3.22
2022-09-18T02:47:00.502Z,4.13
2022-09-18T02:49:47.287Z,5.90
2022-09-18T02:52:24.280Z,5.15
2022-09-18T02:54:57.158Z,2.15
2022-09-18T02:57:34.899Z,6.13
2022-09-18T03:00:08.542Z,9.80
2022-09-18T03:02:39.904Z,14.40
2022-09-18T03:05:12.564Z,7.28
2022-09-18T03:07:50.018Z,11.07
2022-09-18T03:10:20.091Z,10.10
2022-09-18T03:12:50.372Z,9.57
2022-09-18T03:15:20.531Z,12.15
2022-09-18T03:17:50.555Z,4.00
2022-09-18T03:20:20.713Z,10.93
2022-09-18T03:22:51.717Z,10.85
2022-09-18T03:25:21.891Z,21.50
2022-09-18T03:27:56.203Z,40.70
2022-09-18T03:30:34.734Z,46.50
2022-09-18T03:33:10.297Z,52.38
2022-09-18T03:35:40.572Z,28.73
2022-09-18T03:38:10.830Z,39.08
2022-09-18T03:40:44.117Z,39.20
2022-09-18T03:43:16.754Z,29.33
2022-09-18T03:45:46.823Z,19.92
2022-09-18T03:48:18.105Z,25.98
2022-09-18T03:50:50.329Z,23.52
2022-09-18T03:53:20.562Z,19.42
2022-09-18T03:56:10.694Z,13.35
2022-09-18T03:58:55.796Z,15.68
2022-09-18T04:01:40.999Z,19.33
2022-09-18T04:04:29.350Z,8.55
2022-09-18T04:07:17.934Z,12.05
2022-09-18T04:10:10.783Z,9.85
2022-09-18T04:12:42.365Z,8.55
2022-09-18T04:15:24.105Z,6.80
2022-09-18T04:17:54.174Z,8.50
2022-09-18T04:20:24.230Z,12.68
2022-09-18T04:22:54.226Z,12.05
2022-09-18T04:25:24.331Z,4.22
2022-09-18T04:27:54.547Z,6.13
2022-09-18T04:30:24.959Z,5.00
2022-09-18T04:32:55.039Z,9.68
2022-09-18T04:35:27.358Z,11.38
2022-09-18T04:37:57.407Z,8.57
2022-09-18T04:40:27.554Z,5.97
2022-09-18T04:43:03.619Z,7.43
2022-09-18T04:45:33.748Z,6.45
2022-09-18T04:48:03.892Z,4.70
2022-09-18T04:50:34.037Z,3.92
2022-09-18T04:53:18.237Z,6.72
2022-09-18T04:55:49.289Z,6.90
2022-09-18T04:58:21.720Z,2.58
2022-09-18T05:00:57.713Z,4.10
2022-09-18T05:03:27.873Z,3.63
2022-09-18T05:05:57.957Z,4.60
2022-09-18T05:08:27.982Z,3.70
2022-09-18T05:10:58.046Z,3.58
2022-09-18T05:13:31.015Z,4.88
2022-09-18T05:16:09.464Z,4.47
2022-09-18T05:18:39.908Z,4.50
2022-09-18T05:21:10.038Z,2.45
2022-09-18T05:23:40.623Z,3.13
2022-09-18T05:26:10.643Z,4.40
2022-09-18T05:28:40.694Z,3.38
2022-09-18T05:31:12.504Z,2.90
2022-09-18T05:33:47.556Z,3.97
2022-09-18T05:36:17.740Z,2.88
2022-09-18T05:38:54.891Z,5.18
2022-09-18T05:41:26.708Z,9.73
2022-09-18T05:43:57.810Z,6.90
2022-09-18T05:46:28.599Z,6.43
2022-09-18T05:49:03.513Z,5.93
2022-09-18T05:51:33.761Z,4.55
2022-09-18T05:54:04.272Z,3.38
2022-09-18T05:56:41.946Z,3.22
2022-09-18T05:59:13.791Z,4.22
2022-09-18T06:01:47.336Z,2.88
2022-09-18T06:04:37.642Z,5.05
2022-09-18T06:07:12.821Z,5.25
2022-09-18T06:09:42.941Z,5.38
2022-09-18T06:12:12.938Z,2.90
2022-09-18T06:14:43.099Z,3.22
2022-09-18T06:17:13.166Z,5.43
2022-09-18T06:19:43.350Z,5.18
2022-09-18T06:22:13.626Z,4.32
2022-09-18T06:24:45.397Z,5.43
2022-09-18T06:27:20.609Z,3.47
2022-09-18T06:29:50.941Z,4.05
2022-09-18T06:32:30.862Z,3.67
2022-09-18T06:35:01.162Z,2.25
2022-09-18T06:37:31.382Z,3.70
2022-09-18T06:40:27.452Z,2.67
2022-09-18T06:43:18.452Z,3.92
2022-09-18T06:45:53.669Z,2.97
2022-09-18T06:48:27.029Z,6.93
2022-09-18T06:50:57.876Z,11.73
2022-09-18T06:53:31.195Z,2.67
2022-09-18T06:56:05.730Z,7.82
2022-09-18T06:58:38.612Z,3.33
2022-09-18T07:01:09.434Z,6.40
2022-09-18T07:03:45.712Z,3.13
2022-09-18T07:06:27.878Z,2.58
2022-09-18T07:08:58.161Z,2.80
2022-09-18T07:12:06.594Z,2.97
2022-09-18T07:14:48.157Z,3.00
2022-09-18T07:17:21.238Z,4.53
2022-09-18T07:19:55.625Z,3.13
2022-09-18T07:22:44.898Z,2.22
2022-09-18T07:25:17.470Z,3.15
2022-09-18T07:27:47.534Z,5.53
2022-09-18T07:30:19.135Z,9.00
2022-09-18T07:32:49.256Z,9.43
2022-09-18T07:35:24.224Z,11.70
2022-09-18T07:37:54.218Z,9.15
2022-09-18T07:40:35.128Z,6.38
2022-09-18T07:43:11.303Z,11.13
2022-09-18T07:45:48.352Z,6.88
2022-09-18T07:48:19.022Z,9.50
2022-09-18T07:50:52.904Z,11.48
2022-09-18T07:53:22.923Z,8.25
2022-09-18T07:55:57.016Z,9.55
2022-09-18T07:58:28.394Z,5.32
2022-09-18T08:01:02.486Z,4.65
2022-09-18T08:03:37.930Z,9.43
2022-09-18T08:06:13.605Z,5.72
2022-09-18T08:09:09.661Z,4.32
2022-09-18T08:12:09.614Z,6.55
2022-09-18T08:15:10.012Z,8.63
2022-09-18T08:18:08.493Z,16.45
2022-09-18T08:20:59.379Z,4.70
2022-09-18T08:23:48.055Z,7.65
2022-09-18T08:26:26.678Z,6.97
2022-09-18T08:28:57.387Z,6.03
2022-09-18T08:31:28.644Z,5.78
2022-09-18T08:34:00.302Z,7.13
2022-09-18T08:36:30.382Z,9.88
2022-09-18T08:39:20.442Z,6.00
2022-09-18T08:41:59.515Z,7.78
2022-09-18T08:47:14.858Z,3.42
2022-09-18T08:49:52.071Z,5.20
2022-09-18T08:52:24.453Z,4.88
2022-09-18T08:57:49.282Z,3.03
2022-09-18T09:00:35.528Z,12.30
2022-09-18T09:03:32.363Z,4.65
2022-09-18T09:06:03.608Z,6.68
2022-09-18T09:08:39.248Z,4.05
2022-09-18T09:11:32.595Z,6.78
2022-09-18T09:14:15.061Z,4.20
2022-09-18T09:16:52.675Z,7.35
2022-09-18T09:19:32.505Z,4.97
2022-09-18T09:22:21.792Z,7.90
2022-09-18T09:25:04.199Z,6.00
2022-09-18T09:28:17.038Z,5.10
2022-09-18T09:31:02.336Z,11.80
2022-09-18T09:34:27.942Z,6.40
2022-09-18T09:37:11.831Z,3.20
2022-09-18T09:39:51.692Z,7.00
2022-09-18T09:42:31.151Z,6.35
2022-09-18T09:45:03.202Z,6.10
2022-09-18T09:50:22.156Z,6.75
2022-09-18T09:52:52.272Z,8.77
2022-09-18T09:55:30.310Z,4.93
2022-09-18T09:58:16.000Z,8.30
2022-09-18T10:00:51.202Z,6.75
2022-09-18T10:03:33.584Z,7.07
2022-09-18T10:06:19.786Z,5.93
2022-09-18T10:09:08.144Z,10.32
2022-09-18T10:11:38.500Z,8.55
2022-09-18T10:14:13.358Z,28.95
2022-09-18T10:16:54.401Z,36.00
2022-09-18T10:19:27.725Z,29.73
2022-09-18T10:21:58.347Z,25.00
2022-09-18T10:24:29.815Z,82.57
2022-09-18T10:27:05.111Z,146.10
2022-09-18T10:29:36.140Z,129.15
2022-09-18T10:32:09.021Z,75.40
2022-09-18T10:34:52.220Z,58.92
2022-09-18T10:37:30.886Z,48.33
2022-09-18T10:40:12.898Z,55.70
2022-09-18T10:42:43.091Z,35.90
2022-09-18T10:45:30.721Z,56.17
2022-09-18T10:48:18.293Z,44.15
2022-09-18T10:51:03.822Z,69.13
2022-09-18T10:53:39.967Z,87.50
2022-09-18T10:56:29.929Z,74.90
2022-09-18T10:59:15.152Z,59.85
2022-09-18T11:01:47.814Z,53.75
2022-09-18T11:04:18.703Z,47.05
2022-09-18T11:06:48.752Z,54.33
2022-09-18T11:09:32.763Z,40.08
2022-09-18T11:12:03.353Z,37.00
2022-09-18T11:14:41.589Z,41.80
2022-09-18T11:17:27.786Z,39.90
2022-09-18T11:19:59.225Z,33.65
2022-09-18T11:22:45.565Z,33.38
2022-09-18T11:25:29.726Z,32.55
2022-09-18T11:28:29.139Z,35.60
2022-09-18T11:31:02.139Z,26.30
2022-09-18T11:33:36.008Z,32.28
2022-09-18T11:36:08.271Z,27.67
2022-09-18T11:38:46.348Z,28.27
2022-09-18T11:41:23.220Z,30.02
2022-09-18T11:44:16.874Z,25.50
2022-09-18T11:46:49.293Z,35.22
2022-09-18T11:49:22.090Z,20.75
2022-09-18T11:51:59.170Z,18.75
2022-09-18T11:54:57.401Z,21.75
2022-09-18T11:57:40.461Z,21.67
2022-09-18T12:00:21.914Z,19.83
2022-09-18T12:03:00.816Z,24.08
2022-09-18T12:05:39.106Z,22.20
2022-09-18T12:08:15.116Z,27.48
2022-09-18T12:10:54.241Z,19.15
2022-09-18T12:13:46.473Z,18.42
2022-09-18T12:16:35.432Z,21.23
2022-09-18T12:19:16.007Z,20.58
2022-09-18T12:21:54.917Z,23.23
2022-09-18T12:24:25.315Z,18.33
2022-09-18T12:27:08.621Z,17.75
2022-09-18T12:29:52.122Z,20.63
2022-09-18T12:32:31.384Z,26.80
2022-09-18T12:35:07.416Z,18.83
2022-09-18T12:37:37.588Z,17.52
2022-09-18T12:40:24.761Z,14.82
2022-09-18T12:42:58.593Z,14.82
2022-09-18T12:45:44.186Z,21.83
2022-09-18T12:48:21.912Z,16.42
2022-09-18T12:50:56.279Z,16.33
2022-09-18T12:53:44.568Z,18.20
2022-09-18T12:56:40.486Z,15.30
2022-09-18T12:59:13.450Z,16.60
2022-09-18T13:01:46.419Z,13.25
2022-09-18T13:04:16.696Z,17.13
2022-09-18T13:06:52.241Z,12.45
2022-09-18T13:09:25.949Z,13.32
2022-09-18T13:11:57.199Z,12.45
2022-09-18T13:14:28.878Z,15.07
2022-09-18T13:17:10.236Z,14.48
2022-09-18T13:19:57.704Z,12.18
2022-09-18T13:22:27.991Z,15.15
2022-09-18T13:24:58.004Z,12.25
2022-09-18T13:27:28.000Z,13.88
2022-09-18T13:30:00.105Z,12.65
2022-09-18T13:32:37.804Z,11.35
2022-09-18T13:35:17.294Z,10.52
2022-09-18T13:37:47.351Z,11.73
2022-09-18T13:40:28.273Z,11.15
2022-09-18T13:42:59.079Z,12.73
2022-09-18T13:45:29.675Z,9.10
2022-09-18T13:48:07.202Z,13.30
2022-09-18T13:50:38.047Z,9.93
2022-09-18T13:53:08.475Z,9.40
2022-09-18T13:55:39.413Z,8.15
2022-09-18T13:58:35.695Z,11.95
2022-09-18T14:01:09.415Z,10.25
2022-09-18T14:03:42.769Z,8.45
2022-09-18T14:06:31.092Z,10.27
2022-09-18T14:09:01.266Z,9.40
2022-09-18T14:11:31.820Z,7.93
2022-09-18T14:14:02.009Z,10.40
2022-09-18T14:16:34.169Z,9.45
2022-09-18T14:19:05.267Z,12.35
2022-09-18T14:21:44.853Z,14.50
2022-09-18T14:24:17.963Z,17.13
2022-09-18T14:26:48.682Z,8.13
2022-09-18T14:29:21.560Z,7.85
2022-09-18T14:31:56.984Z,14.00
2022-09-18T14:34:29.623Z,8.95
2022-09-18T14:37:02.351Z,9.00
2022-09-18T14:39:33.091Z,11.13
2022-09-18T14:42:03.645Z,8.45
2022-09-18T14:44:34.292Z,8.30
2022-09-18T14:47:05.515Z,11.57
2022-09-18T14:49:38.440Z,14.60
2022-09-18T14:52:27.216Z,8.50
2022-09-18T14:54:58.495Z,7.05
2022-09-18T14:57:34.883Z,10.43
2022-09-18T15:00:05.631Z,8.57
2022-09-18T15:02:36.581Z,8.13
2022-09-18T15:05:12.379Z,8.05
2022-09-18T15:07:42.765Z,7.65
2022-09-18T15:10:13.090Z,11.48
2022-09-18T15:12:43.089Z,8.52
2022-09-18T15:15:40.829Z,9.98
2022-09-18T15:18:28.767Z,8.20
2022-09-18T15:21:00.250Z,14.63
2022-09-18T15:23:39.511Z,8.20
2022-09-18T15:26:14.237Z,8.65
2022-09-18T15:28:46.927Z,6.07
2022-09-18T15:31:17.084Z,5.40
2022-09-18T15:34:01.278Z,9.43
2022-09-18T15:36:33.109Z,7.82
2022-09-18T15:39:09.054Z,9.23
2022-09-18T15:41:45.988Z,9.65
2022-09-18T15:44:31.609Z,8.65
2022-09-18T15:47:21.564Z,7.43
2022-09-18T15:49:52.044Z,10.25
2022-09-18T15:52:38.115Z,8.15
2022-09-18T15:55:23.265Z,7.65
2022-09-18T15:57:53.781Z,6.72
2022-09-18T16:00:28.089Z,8.23
2022-09-18T16:03:01.191Z,9.73
2022-09-18T16:05:31.483Z,6.55
2022-09-18T16:08:06.321Z,8.40
2022-09-18T16:10:36.315Z,7.18
2022-09-18T16:13:29.097Z,9.48
2022-09-18T16:16:14.223Z,8.35
2022-09-18T16:18:53.510Z,9.48
2022-09-18T16:21:23.474Z,7.63
2022-09-18T16:23:57.015Z,11.48
2022-09-18T16:26:29.184Z,12.65
2022-09-18T16:29:02.814Z,7.78
2022-09-18T16:31:34.412Z,7.47
2022-09-18T16:34:05.787Z,11.70
2022-09-18T16:36:36.891Z,8.85
2022-09-18T16:39:09.264Z,6.90
2022-09-18T16:44:12.128Z,8.20
2022-09-18T16:47:00.671Z,7.80
2022-09-18T16:49:31.095Z,7.40
2022-09-18T16:52:01.084Z,9.27
2022-09-18T16:54:31.170Z,6.93
2022-09-18T16:57:21.535Z,10.38
2022-09-18T16:59:51.596Z,8.95
2022-09-18T17:02:25.455Z,8.55
2022-09-18T17:04:56.171Z,8.40
2022-09-18T17:07:26.808Z,8.73
2022-09-18T17:09:57.189Z,8.95
2022-09-18T17:12:27.398Z,8.52
2022-09-18T17:14:57.432Z,8.13
2022-09-18T17:17:27.518Z,8.05
2022-09-18T17:19:58.589Z,8.00
2022-09-18T17:22:28.760Z,8.50
2022-09-18T17:24:58.780Z,8.07
2022-09-18T17:27:28.881Z,10.48
2022-09-18T17:29:58.949Z,8.25
2022-09-18T17:32:28.959Z,8.77
2022-09-18T17:34:59.041Z,7.40
2022-09-18T17:37:30.192Z,10.63
2022-09-18T17:40:01.587Z,9.27
2022-09-18T17:42:31.666Z,9.97
2022-09-18T17:45:01.759Z,7.22
2022-09-18T17:47:31.751Z,8.32
2022-09-18T17:50:02.820Z,7.55
2022-09-18T17:52:35.119Z,8.50
2022-09-18T17:57:37.002Z,10.40
2022-09-18T18:02:41.682Z,6.95
2022-09-18T18:05:12.701Z,7.38
2022-09-18T18:07:43.867Z,6.90
2022-09-18T18:10:13.972Z,9.80
2022-09-18T18:12:43.964Z,6.80
2022-09-18T18:15:13.992Z,9.80
2022-09-18T18:17:44.177Z,7.47
2022-09-18T18:20:14.343Z,7.35
2022-09-18T18:22:44.574Z,8.75
2022-09-18T18:25:14.540Z,9.73
2022-09-18T18:27:44.593Z,8.05
2022-09-18T18:30:17.419Z,7.55
2022-09-18T18:32:47.462Z,7.28
2022-09-18T18:35:17.567Z,8.65
2022-09-18T18:37:48.011Z,7.90
2022-09-18T18:40:18.298Z,13.57
2022-09-18T18:42:48.330Z,6.80
2022-09-18T18:45:18.558Z,8.48
2022-09-18T18:47:51.828Z,6.72
2022-09-18T18:50:22.967Z,7.53
2022-09-18T18:52:52.929Z,6.70
2022-09-18T18:55:22.995Z,7.88
2022-09-18T18:57:53.702Z,6.00
2022-09-18T19:00:28.453Z,6.68
2022-09-18T19:02:58.664Z,7.43
2022-09-18T19:05:31.545Z,5.85
2022-09-18T19:08:01.532Z,8.60
2022-09-18T19:10:31.581Z,7.75
2022-09-18T19:13:01.774Z,7.18
2022-09-18T19:15:33.810Z,8.52
2022-09-18T19:18:05.684Z,6.93
2022-09-18T19:20:35.837Z,8.52
2022-09-18T19:23:08.008Z,6.93
2022-09-18T19:25:38.020Z,7.10
2022-09-18T19:28:08.388Z,7.30
2022-09-18T19:30:39.173Z,8.57
2022-09-18T19:33:09.371Z,7.10
2022-09-18T19:35:39.412Z,6.72
2022-09-18T19:38:09.403Z,7.07
2022-09-18T19:40:39.874Z,9.50
2022-09-18T19:43:11.083Z,6.47
2022-09-18T19:45:42.304Z,6.30
2022-09-18T19:48:14.880Z,6.03
2022-09-18T19:50:47.858Z,7.07
2022-09-18T19:53:17.920Z,7.32
2022-09-18T19:55:48.540Z,6.40
2022-09-18T19:58:19.040Z,6.28
2022-09-18T20:00:49.368Z,7.03
2022-09-18T20:03:19.565Z,6.63
2022-09-18T20:05:50.060Z,9.15
2022-09-18T20:08:20.031Z,6.68
2022-09-18T20:10:50.036Z,7.38
2022-09-18T20:13:20.058Z,6.35
2022-09-18T20:16:00.396Z,7.05
2022-09-18T20:18:30.575Z,7.43
2022-09-18T20:21:05.312Z,6.18
2022-09-18T20:23:35.286Z,5.88
2022-09-18T20:26:11.988Z,6.35
2022-09-18T20:28:42.015Z,7.60
2022-09-18T20:31:12.844Z,6.22
2022-09-18T20:33:42.998Z,5.70
2022-09-18T20:36:13.148Z,6.68
2022-09-18T20:38:43.505Z,7.50
2022-09-18T20:41:17.265Z,7.63
2022-09-18T20:43:48.859Z,7.20
2022-09-18T20:46:19.236Z,5.28
2022-09-18T20:48:58.939Z,5.00
2022-09-18T20:51:29.894Z,7.75
2022-09-18T20:54:00.177Z,6.10
2022-09-18T20:56:32.920Z,6.50
2022-09-18T20:59:06.012Z,7.40
2022-09-18T21:01:36.627Z,6.05
2022-09-18T21:04:06.722Z,5.70
2022-09-18T21:06:37.003Z,7.30
2022-09-18T21:09:10.248Z,5.00
2022-09-18T21:11:40.954Z,5.68
2022-09-18T21:14:12.705Z,6.50
2022-09-18T21:16:44.012Z,5.22
2022-09-18T21:19:14.600Z,7.10
2022-09-18T21:21:44.665Z,5.13
2022-09-18T21:24:14.921Z,7.88
2022-09-18T21:26:45.711Z,5.38
2022-09-18T21:29:33.523Z,5.63
2022-09-18T21:32:03.655Z,5.45
2022-09-18T21:34:35.339Z,4.82
2022-09-18T21:37:06.348Z,4.82
2022-09-18T21:39:36.769Z,5.63
2022-09-18T21:42:08.436Z,4.35
2022-09-18T21:44:38.851Z,3.45
2022-09-18T21:47:09.823Z,6.20
2022-09-18T21:49:39.874Z,4.90
2022-09-18T21:52:10.239Z,3.78
2022-09-18T21:54:40.471Z,4.68
2022-09-18T21:57:11.333Z,4.82
2022-09-18T21:59:44.208Z,5.32
2022-09-18T22:02:14.964Z,5.30
2022-09-18T22:04:45.186Z,5.20
2022-09-18T22:07:15.204Z,4.75
2022-09-18T22:09:45.254Z,4.63
2022-09-18T22:12:15.262Z,5.30
2022-09-18T22:14:45.228Z,4.72
2022-09-18T22:17:15.890Z,5.15
2022-09-18T22:19:45.898Z,4.45
2022-09-18T22:22:16.683Z,4.50
2022-09-18T22:24:46.752Z,3.92
2022-09-18T22:27:16.776Z,3.47
2022-09-18T22:29:47.221Z,5.45
2022-09-18T22:32:17.670Z,4.43
2022-09-18T22:34:47.704Z,4.18
2022-09-18T22:37:17.928Z,5.93
2022-09-18T22:39:48.199Z,4.00
2022-09-18T22:42:19.194Z,4.20
2022-09-18T22:44:49.325Z,5.13
2022-09-18T22:47:19.950Z,4.57
2022-09-18T22:49:49.917Z,4.97
2022-09-18T22:52:20.456Z,4.68
2022-09-18T22:54:50.827Z,5.35
2022-09-18T22:57:20.825Z,3.90
2022-09-18T22:59:51.142Z,5.00
2022-09-18T23:02:22.645Z,4.00
2022-09-18T23:04:53.059Z,5.15
2022-09-18T23:07:23.130Z,4.80
2022-09-18T23:09:53.140Z,6.68
2022-09-18T23:12:23.173Z,4.65
2022-09-18T23:14:53.184Z,4.95
2022-09-18T23:17:24.137Z,5.63
2022-09-18T23:19:54.412Z,4.13
2022-09-18T23:22:24.924Z,5.60
2022-09-18T23:24:55.179Z,3.97
2022-09-18T23:27:25.229Z,3.63
2022-09-18T23:29:55.235Z,3.50
2022-09-18T23:32:25.930Z,4.18
2022-09-18T23:34:56.332Z,3.80
2022-09-18T23:37:26.597Z,5.07
2022-09-18T23:39:56.699Z,6.40
2022-09-18T23:42:27.854Z,4.47
2022-09-18T23:44:58.119Z,4.88
2022-09-18T23:47:28.539Z,6.78
2022-09-18T23:49:58.527Z,4.10
2022-09-18T23:52:29.003Z,4.25
2022-09-18T23:54:59.092Z,4.38
2022-09-18T23:57:31.743Z,3.25
